SEASEATTLE-TACOMA INTL
METARs for airports near SEA, sorted by distance:
N 0 nm 432' KSEA 222353Z 01005KT 10SM FEW010 SCT170 06/02 A3050
NE 4 nm 32' KRNT 222353Z 34004KT 10SM CLR 06/02 A3051
N 4 nm 21' KBFI 222353Z VRB03KT 10SM SCT160 07/03 A3051
SW 15 nm 294' KTIW 222353Z 07003KT 10SM FEW015 06/03 A3051
W 18 nm 444' KPWT 222356Z 05006KT 10SM CLR 07/04 A3050
S 19 nm 322' KTCM 222358Z 07003KT 10SM CLR 06/04 A3050
S 20 nm 537' KPLU 222355Z 00000KT 6SM BR OVC004 03/03 A3050
SW 24 nm 301' KGRF 222358Z 08004KT 10SM CLR 06/02 A3049
N 27 nm 606' KPAE 222353Z 34006KT 10SM CLR 07/02 A3051
W 36 nm 272' KSHN 222353Z 10SM CLR 08/03 A3047
SW 37 nm 207' KOLM 222354Z 05007KT 10SM CLR 08/03 A3049
N 43 nm 141' KAWO 222356Z 28005KT 10SM CLR 07/03 A3052
SW 53 nm 177' KCLS 222355Z 03007KT 10SM CLR 07/04 A3048
N 55 nm 47' KNUW 222356Z 34005KT 10SM SCT150 BKN250 07/03 A3056
NW 60 nm 13' KNOW 222355Z 08008KT 10SM CLR 06/05 A3052
N 61 nm 145' KBVS 222355Z 30006KT 10SM CLR 07/05 A3052
NW 62 nm 291' KCLM 222353Z 11008KT 10SM FEW011 07/03 A3052
NW 70 nm 112' KFHR 222353Z VRB04KT 10SM CLR 06/03 A3053
SW 72 nm 17' KHQM 222353Z 08015KT 10SM CLR 10/04 A3044
E 76 nm 1763' KELN 222353Z 00000KT 10SM CLR 00/M05 A3051
N 79 nm 34' KORS 222355Z 33005KT 10SM CLR 06/05 A3052
N 81 nm 171' KBLI 222353Z 29004KT 10SM FEW010 07/05 A3052
S 83 nm 20' KKLS 222356Z 36006KT 10SM CLR 09/04 A3044
NW 84 nm 64' CYYJ 222300Z 09005KT 30SM FEW200 BKN250 07/05 A3054
E 85 nm 1248' KEAT 222355Z 00000KT 10SM CLR M02/M03 A3054
SE 89 nm 1098' KYKM 222353Z 00000KT 10SM CLR 05/M03 A3053
W 95 nm 193' KUIL 222353Z 00000KT 10SM CLR 11/07 A3044
TAFs for airports near SEA, sorted by distance:
N 0 nm 432' KSEA TAF KSEA 222320Z 2300/2406 04006KT P6SM SCT015 BKN250
  FM230600 02003KT 1SM BR FEW010
  FM231000 00000KT 1/4SM FG VV001
  FM231700 VRB02KT 1SM BR OVC003
  FM232000 35003KT P6SM SCT005 SCT015 SCT250
N 4 nm 21' KBFI TAF KBFI 222320Z 2300/2324 VRB04KT P6SM SCT015 BKN250
  FM230500 03004KT 4SM BR SCT015
  FM231000 00000KT 2SM BR OVC005
  TEMPO 2313/2317 1/4SM FG OVC002
  FM231700 VRB03KT 2SM BR OVC007
  FM232000 33004KT P6SM SCT015 SCT250
W 18 nm 444' KPWT TAF KPWT 222320Z 2300/2324 03006KT P6SM BKN015
  FM230500 02003KT 2SM BR OVC005
  FM231000 VRB03KT 1/4SM FG VV001
  FM232000 05004KT P6SM SCT005 BKN010
S 19 nm 322' KTCM TAF KTCM 222100Z 2221/2403 VRB03KT 9999 OVC005 QNH3049INS
  BECMG 2222/2223 02006KT 9999 FEW010 QNH3044INS
  BECMG 2305/2306 01004KT 3200 BR SCT001 QNH3036INS
  TEMPO 2309/2315 0600 FG
  BECMG 2317/2318 01006KT 9999 NSW OVC003 QNH3030INS
  BECMG 2323/2324 VRB06KT 9999 SCT010 QNH3030INS TX07/2222Z TN00/2314Z
SW 24 nm 301' KGRF TAF
  AMD KGRF 222256Z 2222/2403 VRB05KT 9999 SCT010 QNH3050INS
  BECMG 2302/2303 VRB05KT 9999 SCT020 QNH3049INS
  BECMG 2309/2310 VRB05KT 3200 BR OVC015 QNH3047INS
  TEMPO 2313/2316 VRB02KT 1600 BR OVC010
  BECMG 2318/2319 02005KT 9999 NSW SCT020 QNH3040INS
  BECMG 2322/2323 02005KT 9999 SCT020 QNH3040INS TX07/2221Z TN02/2316Z
N 27 nm 606' KPAE TAF KPAE 222320Z 2300/2324 36006KT P6SM SCT005 SCT200
  FM230500 VRB02KT 2SM BR BKN003
  FM231000 00000KT 1/4SM FG VV001
  FM231800 VRB03KT P6SM SCT005 SCT250
SW 37 nm 207' KOLM TAF KOLM 222320Z 2300/2324 05006KT P6SM SCT010 SCT200
  FM230500 00000KT 1/2SM FG VV001
  FM231000 00000KT 1/4SM FG VV001
  FM232000 15003KT 4SM BR OVC007
N 55 nm 47' KNUW TAF KNUW 2223/2323 35008KT 9999 FEW010 FEW030 SCT120 BKN250 QNH3048INS
  FM230200 VRB06KT 9999 FEW008 FEW180 QNH3043INS
  TEMPO 2304/2309 2400 BR BKN005
  FM231000 VRB04KT 2400 BR OVC003 QNH3041INS
  TEMPO 2310/2316 0800 FG OVC002
  BECMG 2319/2320 9999 SCT180 QNH3029INS T02/2309Z T7/2322Z FS30189
NW 62 nm 291' KCLM TAF KCLM 222320Z 2300/2324 08008KT P6SM OVC015
  FM230600 14003KT 6SM BR OVC010
  FM231000 14003KT 1/4SM FG OVC003
  FM231800 12003KT P6SM OVC010
SW 72 nm 17' KHQM TAF KHQM 222320Z 2300/2324 06010KT P6SM SCT200
  FM230600 05005KT 4SM BR SKC
  FM231200 10012KT 5SM BR SKC
  FM232000 03009KT P6SM SKC
N 81 nm 171' KBLI TAF KBLI 222320Z 2300/2324 30004KT P6SM FEW010 SCT200
  FM230800 00000KT 4SM BR SKC
  FM231100 00000KT 1SM BR SKC
  TEMPO 2312/2316 1/4SM FG VV001
  FM231800 34003KT P6SM SCT250
E 85 nm 1248' KEAT KEAT 222343Z 2300/2324 09004KT P6SM BKN150
  FM230400 00000KT 2SM BR BKN002
  FM230700 00000KT 1/2SM FZFG VV002
  FM231800 VRB02KT 3SM BR OVC004
  FM232000 VRB03KT 6SM BR OVC006
SE 89 nm 1098' KYKM TAF KYKM 222320Z 2300/2324 VRB03KT P6SM FEW250
  FM230800 28003KT 4SM BR SCT006
  FM231400 29003KT 1SM BR BKN006
  FM232000 VRB03KT 6SM BR BKN025

Shortcut to this page: http://wxbay.com.

Data may contain errors.